sensor_id;sensor_type;location;lat;lon;timestamp;pressure;altitude;pressure_sealevel;temperature;humidity
11268;BME280;49397;47.474;9.416;2023-01-29T00:01:05;96222.69;;;-0.33;86.69
11268;BME280;49397;47.474;9.416;2023-01-29T00:03:31;96230.78;;;-0.40;87.29
11268;BME280;49397;47.474;9.416;2023-01-29T00:05:57;96231.44;;;-0.44;87.17
11268;BME280;49397;47.474;9.416;2023-01-29T00:08:23;96236.13;;;-0.40;86.97
11268;BME280;49397;47.474;9.416;2023-01-29T00:10:49;96240.94;;;-0.30;86.00
11268;BME280;49397;47.474;9.416;2023-01-29T00:13:14;96227.50;;;-0.24;85.03
11268;BME280;49397;47.474;9.416;2023-01-29T00:15:40;96230.16;;;-0.24;85.94
11268;BME280;49397;47.474;9.416;2023-01-29T00:18:06;96228.91;;;-0.21;85.87
11268;BME280;49397;47.474;9.416;2023-01-29T00:20:31;96229.06;;;-0.16;84.90
11268;BME280;49397;47.474;9.416;2023-01-29T00:22:58;96232.56;;;-0.34;85.30
11268;BME280;49397;47.474;9.416;2023-01-29T00:25:23;96223.75;;;-0.34;85.82
11268;BME280;49397;47.474;9.416;2023-01-29T00:27:50;96230.13;;;-0.35;86.38
11268;BME280;49397;47.474;9.416;2023-01-29T00:30:15;96220.56;;;-0.43;85.77
11268;BME280;49397;47.474;9.416;2023-01-29T00:32:44;96229.91;;;-0.52;86.72
11268;BME280;49397;47.474;9.416;2023-01-29T00:35:10;96235.75;;;-0.43;86.33
11268;BME280;49397;47.474;9.416;2023-01-29T00:37:36;96234.19;;;-0.33;85.45
11268;BME280;49397;47.474;9.416;2023-01-29T00:40:03;96234.03;;;-0.38;85.76
11268;BME280;49397;47.474;9.416;2023-01-29T00:42:29;96228.78;;;-0.26;84.95
11268;BME280;49397;47.474;9.416;2023-01-29T00:45:13;96218.56;;;-0.29;85.21
11268;BME280;49397;47.474;9.416;2023-01-29T00:47:39;96228.56;;;-0.43;85.89
11268;BME280;49397;47.474;9.416;2023-01-29T00:50:07;96226.47;;;-0.41;86.26
11268;BME280;49397;47.474;9.416;2023-01-29T00:52:33;96227.00;;;-0.50;86.23
11268;BME280;49397;47.474;9.416;2023-01-29T00:55:01;96224.66;;;-0.40;85.94
11268;BME280;49397;47.474;9.416;2023-01-29T00:57:30;96234.69;;;-0.24;84.95
11268;BME280;49397;47.474;9.416;2023-01-29T00:59:56;96229.69;;;-0.32;85.62
11268;BME280;49397;47.474;9.416;2023-01-29T01:02:21;96227.47;;;-0.35;85.01
11268;BME280;49397;47.474;9.416;2023-01-29T01:05:06;96230.69;;;-0.33;85.68
11268;BME280;49397;47.474;9.416;2023-01-29T01:07:34;96221.44;;;-0.49;85.58
11268;BME280;49397;47.474;9.416;2023-01-29T01:10:00;96227.00;;;-0.50;85.81
11268;BME280;49397;47.474;9.416;2023-01-29T01:12:43;96239.31;;;-0.49;86.29
11268;BME280;49397;47.474;9.416;2023-01-29T01:15:09;96247.66;;;-0.46;85.99
11268;BME280;49397;47.474;9.416;2023-01-29T01:17:35;96254.25;;;-0.30;85.63
11268;BME280;49397;47.474;9.416;2023-01-29T01:20:00;96263.06;;;-0.30;85.55
11268;BME280;49397;47.474;9.416;2023-01-29T01:22:26;96260.19;;;-0.46;86.98
11268;BME280;49397;47.474;9.416;2023-01-29T01:24:51;96275.50;;;-0.42;87.65
11268;BME280;49397;47.474;9.416;2023-01-29T01:27:17;96262.78;;;-0.40;86.79
11268;BME280;49397;47.474;9.416;2023-01-29T01:29:44;96262.25;;;-0.30;85.81
11268;BME280;49397;47.474;9.416;2023-01-29T01:32:11;96262.69;;;-0.33;85.80
11268;BME280;49397;47.474;9.416;2023-01-29T01:34:36;96261.44;;;-0.31;86.35
11268;BME280;49397;47.474;9.416;2023-01-29T01:37:02;96265.81;;;-0.18;85.17
11268;BME280;49397;47.474;9.416;2023-01-29T01:39:28;96274.25;;;-0.21;85.94
11268;BME280;49397;47.474;9.416;2023-01-29T01:41:53;96275.25;;;-0.22;85.61
11268;BME280;49397;47.474;9.416;2023-01-29T01:47:16;96280.84;;;-0.42;85.30
11268;BME280;49397;47.474;9.416;2023-01-29T01:49:44;96285.56;;;-0.44;85.67
11268;BME280;49397;47.474;9.416;2023-01-29T01:52:12;96285.56;;;-0.44;85.72
11268;BME280;49397;47.474;9.416;2023-01-29T01:54:41;96289.06;;;-0.43;86.24
11268;BME280;49397;47.474;9.416;2023-01-29T01:57:11;96271.28;;;-0.49;85.51
11268;BME280;49397;47.474;9.416;2023-01-29T01:59:47;96279.56;;;-0.39;85.95
11268;BME280;49397;47.474;9.416;2023-01-29T02:02:16;96276.22;;;-0.35;85.73
11268;BME280;49397;47.474;9.416;2023-01-29T02:05:01;96291.38;;;-0.29;85.71
11268;BME280;49397;47.474;9.416;2023-01-29T02:07:48;96278.16;;;-0.24;85.33
11268;BME280;49397;47.474;9.416;2023-01-29T02:10:46;96278.16;;;-0.24;85.89
11268;BME280;49397;47.474;9.416;2023-01-29T02:13:12;96278.59;;;-0.27;85.62
11268;BME280;49397;47.474;9.416;2023-01-29T02:15:40;96276.53;;;-0.25;86.08
11268;BME280;49397;47.474;9.416;2023-01-29T02:18:06;96276.75;;;-0.26;85.73
11268;BME280;49397;47.474;9.416;2023-01-29T02:20:33;96280.78;;;-0.35;85.93
11268;BME280;49397;47.474;9.416;2023-01-29T02:26:15;96284.00;;;-0.33;86.30
11268;BME280;49397;47.474;9.416;2023-01-29T02:29:06;96281.03;;;-0.25;85.79
11268;BME280;49397;47.474;9.416;2023-01-29T02:31:59;96278.03;;;-0.29;85.30
11268;BME280;49397;47.474;9.416;2023-01-29T02:34:39;96273.34;;;-0.33;84.45
11268;BME280;49397;47.474;9.416;2023-01-29T02:38:06;96267.72;;;-0.25;84.56
11268;BME280;49397;47.474;9.416;2023-01-29T02:40:51;96278.16;;;-0.24;84.36
11268;BME280;49397;47.474;9.416;2023-01-29T02:46:15;96281.22;;;-0.38;84.91
11268;BME280;49397;47.474;9.416;2023-01-29T02:48:54;96286.16;;;-0.42;84.30
11268;BME280;49397;47.474;9.416;2023-01-29T02:54:11;96270.09;;;-0.35;82.73
11268;BME280;49397;47.474;9.416;2023-01-29T02:56:45;96269.22;;;-0.29;82.88
11268;BME280;49397;47.474;9.416;2023-01-29T02:59:23;96256.03;;;-0.24;82.80
11268;BME280;49397;47.474;9.416;2023-01-29T03:02:04;96257.50;;;-0.28;82.50
11268;BME280;49397;47.474;9.416;2023-01-29T03:04:37;96250.63;;;-0.36;82.59
11268;BME280;49397;47.474;9.416;2023-01-29T03:07:09;96244.78;;;-0.44;80.73
11268;BME280;49397;47.474;9.416;2023-01-29T03:09:58;96250.84;;;-0.37;81.56
11268;BME280;49397;47.474;9.416;2023-01-29T03:12:27;96250.56;;;-0.29;81.72
11268;BME280;49397;47.474;9.416;2023-01-29T03:15:01;96254.38;;;-0.25;81.50
11268;BME280;49397;47.474;9.416;2023-01-29T03:20:21;96237.06;;;-0.34;82.67
11268;BME280;49397;47.474;9.416;2023-01-29T03:22:52;96241.28;;;-0.27;82.13
11268;BME280;49397;47.474;9.416;2023-01-29T03:25:22;96240.63;;;-0.40;81.72
11268;BME280;49397;47.474;9.416;2023-01-29T03:28:09;96247.81;;;-0.41;82.17
11268;BME280;49397;47.474;9.416;2023-01-29T03:30:59;96246.09;;;-0.53;84.13
11268;BME280;49397;47.474;9.416;2023-01-29T03:33:58;96255.53;;;-0.51;84.88
11268;BME280;49397;47.474;9.416;2023-01-29T03:36:35;96248.56;;;-0.52;85.30
11268;BME280;49397;47.474;9.416;2023-01-29T03:39:07;96258.19;;;-0.51;84.51
11268;BME280;49397;47.474;9.416;2023-01-29T03:41:39;96253.72;;;-0.57;85.35
11268;BME280;49397;47.474;9.416;2023-01-29T03:46:55;96245.44;;;-0.67;86.26
11268;BME280;49397;47.474;9.416;2023-01-29T03:49:33;96254.53;;;-0.74;86.71
11268;BME280;49397;47.474;9.416;2023-01-29T03:52:20;96241.81;;;-0.72;86.52
11268;BME280;49397;47.474;9.416;2023-01-29T03:55:02;96240.41;;;-0.75;86.29
11268;BME280;49397;47.474;9.416;2023-01-29T03:57:57;96242.69;;;-0.78;85.70
11268;BME280;49397;47.474;9.416;2023-01-29T04:00:39;96236.59;;;-0.85;85.28
11268;BME280;49397;47.474;9.416;2023-01-29T04:05:50;96238.91;;;-0.71;85.29
11268;BME280;49397;47.474;9.416;2023-01-29T04:08:26;96229.31;;;-0.72;85.74
11268;BME280;49397;47.474;9.416;2023-01-29T04:10:55;96220.50;;;-0.72;85.42
11268;BME280;49397;47.474;9.416;2023-01-29T04:13:23;96209.34;;;-0.81;85.41
11268;BME280;49397;47.474;9.416;2023-01-29T04:15:54;96231.22;;;-0.79;84.36
11268;BME280;49397;47.474;9.416;2023-01-29T04:18:21;96225.00;;;-0.91;84.17
11268;BME280;49397;47.474;9.416;2023-01-29T04:20:46;96231.31;;;-1.10;85.87
11268;BME280;49397;47.474;9.416;2023-01-29T04:23:24;96228.94;;;-1.18;85.69
11268;BME280;49397;47.474;9.416;2023-01-29T04:29:08;96211.69;;;-1.15;85.74
11268;BME280;49397;47.474;9.416;2023-01-29T04:31:52;96210.25;;;-1.11;85.41
11268;BME280;49397;47.474;9.416;2023-01-29T04:37:15;96199.19;;;-1.33;85.67
11268;BME280;49397;47.474;9.416;2023-01-29T04:40:19;96206.47;;;-1.46;86.58
11268;BME280;49397;47.474;9.416;2023-01-29T04:43:02;96192.53;;;-1.48;87.46
11268;BME280;49397;47.474;9.416;2023-01-29T04:48:26;96220.03;;;-1.55;86.69
11268;BME280;49397;47.474;9.416;2023-01-29T04:51:09;96220.38;;;-1.44;86.34
11268;BME280;49397;47.474;9.416;2023-01-29T04:58:51;96222.25;;;-1.76;86.13
11268;BME280;49397;47.474;9.416;2023-01-29T05:01:21;96223.84;;;-1.75;86.42
11268;BME280;49397;47.474;9.416;2023-01-29T05:03:52;96230.81;;;-1.74;86.90
11268;BME280;49397;47.474;9.416;2023-01-29T05:06:19;96223.09;;;-1.82;86.07
11268;BME280;49397;47.474;9.416;2023-01-29T05:08:46;96214.00;;;-1.99;86.64
11268;BME280;49397;47.474;9.416;2023-01-29T05:11:14;96225.19;;;-1.91;86.57
11268;BME280;49397;47.474;9.416;2023-01-29T05:13:41;96224.78;;;-1.94;85.98
11268;BME280;49397;47.474;9.416;2023-01-29T05:16:19;96215.78;;;-1.87;86.24
11268;BME280;49397;47.474;9.416;2023-01-29T05:18:46;96221.72;;;-1.91;85.77
11268;BME280;49397;47.474;9.416;2023-01-29T05:21:12;96223.78;;;-1.93;84.97
11268;BME280;49397;47.474;9.416;2023-01-29T05:23:38;96244.06;;;-1.99;85.71
11268;BME280;49397;47.474;9.416;2023-01-29T05:26:04;96251.41;;;-2.01;85.95
11268;BME280;49397;47.474;9.416;2023-01-29T05:28:29;96244.69;;;-2.03;85.41
11268;BME280;49397;47.474;9.416;2023-01-29T05:30:55;96242.69;;;-2.08;85.50
11268;BME280;49397;47.474;9.416;2023-01-29T05:33:24;96244.13;;;-2.12;85.46
11268;BME280;49397;47.474;9.416;2023-01-29T05:35:50;96262.13;;;-2.07;85.71
11268;BME280;49397;47.474;9.416;2023-01-29T05:38:16;96264.63;;;-2.19;86.73
11268;BME280;49397;47.474;9.416;2023-01-29T05:40:43;96260.94;;;-2.24;87.90
11268;BME280;49397;47.474;9.416;2023-01-29T05:43:20;96271.34;;;-2.23;88.02
11268;BME280;49397;47.474;9.416;2023-01-29T05:46:00;96277.28;;;-2.21;88.93
11268;BME280;49397;47.474;9.416;2023-01-29T05:48:27;96281.13;;;-2.10;88.39
11268;BME280;49397;47.474;9.416;2023-01-29T05:50:53;96281.31;;;-2.05;88.05
11268;BME280;49397;47.474;9.416;2023-01-29T05:53:18;96294.16;;;-2.02;88.60
11268;BME280;49397;47.474;9.416;2023-01-29T05:55:47;96295.41;;;-2.05;87.93
11268;BME280;49397;47.474;9.416;2023-01-29T05:58:13;96291.16;;;-2.12;88.52
11268;BME280;49397;47.474;9.416;2023-01-29T06:00:39;96301.41;;;-2.16;89.24
11268;BME280;49397;47.474;9.416;2023-01-29T06:03:05;96307.31;;;-2.07;88.39
11268;BME280;49397;47.474;9.416;2023-01-29T06:05:30;96317.56;;;-2.17;88.95
11268;BME280;49397;47.474;9.416;2023-01-29T06:07:56;96317.97;;;-2.14;89.25
11268;BME280;49397;47.474;9.416;2023-01-29T06:10:21;96317.72;;;-2.06;88.70
11268;BME280;49397;47.474;9.416;2023-01-29T06:12:47;96313.41;;;-2.07;88.42
11268;BME280;49397;47.474;9.416;2023-01-29T06:15:13;96325.25;;;-1.96;88.12
11268;BME280;49397;47.474;9.416;2023-01-29T06:17:44;96328.16;;;-2.04;88.44
11268;BME280;49397;47.474;9.416;2023-01-29T06:20:10;96328.16;;;-2.04;87.50
11268;BME280;49397;47.474;9.416;2023-01-29T06:22:35;96332.41;;;-1.97;87.85
11268;BME280;49397;47.474;9.416;2023-01-29T06:25:01;96334.03;;;-1.96;87.59
11268;BME280;49397;47.474;9.416;2023-01-29T06:27:26;96326.88;;;-1.95;87.52
11268;BME280;49397;47.474;9.416;2023-01-29T06:29:52;96322.28;;;-1.82;86.55
11268;BME280;49397;47.474;9.416;2023-01-29T06:32:17;96309.41;;;-1.78;86.52
11268;BME280;49397;47.474;9.416;2023-01-29T06:34:42;96318.63;;;-1.81;86.45
11268;BME280;49397;47.474;9.416;2023-01-29T06:37:08;96324.38;;;-1.84;86.75
11268;BME280;49397;47.474;9.416;2023-01-29T06:39:34;96330.47;;;-1.77;85.36
11268;BME280;49397;47.474;9.416;2023-01-29T06:41:59;96328.41;;;-1.75;85.74
11268;BME280;49397;47.474;9.416;2023-01-29T06:44:25;96327.56;;;-1.69;85.67
11268;BME280;49397;47.474;9.416;2023-01-29T06:46:50;96308.56;;;-1.79;85.52
11268;BME280;49397;47.474;9.416;2023-01-29T06:49:16;96321.81;;;-1.66;85.08
11268;BME280;49397;47.474;9.416;2023-01-29T06:51:41;96313.84;;;-1.72;84.53
11268;BME280;49397;47.474;9.416;2023-01-29T06:54:08;96334.34;;;-1.73;84.61
11268;BME280;49397;47.474;9.416;2023-01-29T06:56:34;96340.75;;;-1.87;84.90
11268;BME280;49397;47.474;9.416;2023-01-29T06:58:59;96324.00;;;-1.94;85.68
11268;BME280;49397;47.474;9.416;2023-01-29T07:01:25;96328.91;;;-1.97;85.98
11268;BME280;49397;47.474;9.416;2023-01-29T07:03:51;96324.63;;;-1.98;85.02
11268;BME280;49397;47.474;9.416;2023-01-29T07:06:17;96324.00;;;-1.94;85.61
11268;BME280;49397;47.474;9.416;2023-01-29T07:08:43;96328.94;;;-2.04;85.30
11268;BME280;49397;47.474;9.416;2023-01-29T07:11:08;96320.53;;;-2.01;85.36
11268;BME280;49397;47.474;9.416;2023-01-29T07:13:34;96318.31;;;-2.04;85.63
11268;BME280;49397;47.474;9.416;2023-01-29T07:16:01;96302.19;;;-2.09;85.62
11268;BME280;49397;47.474;9.416;2023-01-29T07:18:27;96303.41;;;-2.05;85.12
11268;BME280;49397;47.474;9.416;2023-01-29T07:20:53;96300.13;;;-2.07;85.14
11268;BME280;49397;47.474;9.416;2023-01-29T07:23:19;96306.25;;;-2.06;84.52
11268;BME280;49397;47.474;9.416;2023-01-29T07:25:45;96313.19;;;-1.99;83.65
11268;BME280;49397;47.474;9.416;2023-01-29T07:28:15;96302.72;;;-1.94;84.06
11268;BME280;49397;47.474;9.416;2023-01-29T07:30:40;96302.13;;;-1.96;84.42
11268;BME280;49397;47.474;9.416;2023-01-29T07:33:08;96305.75;;;-1.84;83.78
11268;BME280;49397;47.474;9.416;2023-01-29T07:35:38;96309.16;;;-1.70;83.12
11268;BME280;49397;47.474;9.416;2023-01-29T07:38:05;96295.19;;;-1.66;81.88
11268;BME280;49397;47.474;9.416;2023-01-29T07:40:31;96294.94;;;-1.58;81.44
11268;BME280;49397;47.474;9.416;2023-01-29T07:43:00;96292.84;;;-1.49;81.09
11268;BME280;49397;47.474;9.416;2023-01-29T07:45:27;96288.72;;;-1.45;80.33
11268;BME280;49397;47.474;9.416;2023-01-29T07:47:54;96296.50;;;-1.43;80.38
11268;BME280;49397;47.474;9.416;2023-01-29T07:50:24;96288.34;;;-1.48;80.84
11268;BME280;49397;47.474;9.416;2023-01-29T07:52:50;96286.06;;;-1.45;81.35
11268;BME280;49397;47.474;9.416;2023-01-29T07:55:16;96294.66;;;-1.18;80.73
11268;BME280;49397;47.474;9.416;2023-01-29T07:57:42;96294.78;;;-1.07;80.54
11268;BME280;49397;47.474;9.416;2023-01-29T08:00:08;96294.41;;;-1.10;80.02
11268;BME280;49397;47.474;9.416;2023-01-29T08:02:34;96297.22;;;-1.05;79.85
11268;BME280;49397;47.474;9.416;2023-01-29T08:04:59;96296.00;;;-1.03;80.52
11268;BME280;49397;47.474;9.416;2023-01-29T08:07:25;96301.19;;;-0.90;81.46
11268;BME280;49397;47.474;9.416;2023-01-29T08:09:50;96283.75;;;-0.68;80.04
11268;BME280;49397;47.474;9.416;2023-01-29T08:12:16;96281.50;;;-0.46;78.03
11268;BME280;49397;47.474;9.416;2023-01-29T08:14:41;96297.88;;;-0.25;78.45
11268;BME280;49397;47.474;9.416;2023-01-29T08:17:07;96273.34;;;-0.33;76.15
11268;BME280;49397;47.474;9.416;2023-01-29T08:19:32;96285.75;;;-0.21;75.68
11268;BME280;49397;47.474;9.416;2023-01-29T08:21:58;96283.72;;;-0.07;75.39
11268;BME280;49397;47.474;9.416;2023-01-29T08:24:23;96281.69;;;0.07;73.81
11268;BME280;49397;47.474;9.416;2023-01-29T08:26:49;96276.69;;;0.28;73.26
11268;BME280;49397;47.474;9.416;2023-01-29T08:29:14;96278.09;;;0.31;73.02
11268;BME280;49397;47.474;9.416;2023-01-29T08:31:40;96280.50;;;0.50;71.40
11268;BME280;49397;47.474;9.416;2023-01-29T08:34:05;96291.41;;;0.49;72.34
11268;BME280;49397;47.474;9.416;2023-01-29T08:36:31;96301.38;;;0.53;72.79
11268;BME280;49397;47.474;9.416;2023-01-29T08:38:56;96288.38;;;0.45;70.79
11268;BME280;49397;47.474;9.416;2023-01-29T08:41:22;96291.72;;;0.82;70.76
11268;BME280;49397;47.474;9.416;2023-01-29T08:43:47;96298.94;;;0.93;70.91
11268;BME280;49397;47.474;9.416;2023-01-29T08:46:13;96293.13;;;0.96;70.71
11268;BME280;49397;47.474;9.416;2023-01-29T08:48:39;96286.78;;;1.08;69.66
11268;BME280;49397;47.474;9.416;2023-01-29T08:51:04;96289.56;;;1.13;68.08
11268;BME280;49397;47.474;9.416;2023-01-29T08:53:30;96273.53;;;1.36;68.43
11268;BME280;49397;47.474;9.416;2023-01-29T08:55:56;96296.88;;;1.41;67.87
11268;BME280;49397;47.474;9.416;2023-01-29T08:58:21;96295.84;;;1.53;67.40
11268;BME280;49397;47.474;9.416;2023-01-29T09:00:48;96277.00;;;1.60;66.14
11268;BME280;49397;47.474;9.416;2023-01-29T09:03:14;96303.38;;;1.80;65.82
11268;BME280;49397;47.474;9.416;2023-01-29T09:05:39;96299.81;;;1.51;64.69
11268;BME280;49397;47.474;9.416;2023-01-29T09:08:07;96293.88;;;1.37;64.28
11268;BME280;49397;47.474;9.416;2023-01-29T09:10:33;96314.56;;;1.77;64.90
11268;BME280;49397;47.474;9.416;2023-01-29T09:12:59;96305.72;;;1.65;63.61
11268;BME280;49397;47.474;9.416;2023-01-29T09:15:25;96324.56;;;1.81;64.69
11268;BME280;49397;47.474;9.416;2023-01-29T09:17:51;96323.41;;;1.66;63.75
11268;BME280;49397;47.474;9.416;2023-01-29T09:20:17;96329.34;;;1.56;63.79
11268;BME280;49397;47.474;9.416;2023-01-29T09:22:44;96324.19;;;1.20;64.04
11268;BME280;49397;47.474;9.416;2023-01-29T09:25:10;96330.59;;;1.53;63.39
11268;BME280;49397;47.474;9.416;2023-01-29T09:27:36;96342.56;;;1.74;63.27
11268;BME280;49397;47.474;9.416;2023-01-29T09:30:03;96340.72;;;1.75;63.83
11268;BME280;49397;47.474;9.416;2023-01-29T09:32:28;96344.88;;;1.82;64.06
11268;BME280;49397;47.474;9.416;2023-01-29T09:34:57;96338.47;;;2.06;63.75
11268;BME280;49397;47.474;9.416;2023-01-29T09:37:22;96335.19;;;2.16;62.44
11268;BME280;49397;47.474;9.416;2023-01-29T09:39:48;96335.84;;;1.83;62.03
11268;BME280;49397;47.474;9.416;2023-01-29T09:42:27;96342.34;;;1.64;63.17
11268;BME280;49397;47.474;9.416;2023-01-29T09:45:03;96341.88;;;1.44;64.24
11268;BME280;49397;47.474;9.416;2023-01-29T09:47:34;96349.78;;;1.39;64.30
11268;BME280;49397;47.474;9.416;2023-01-29T09:50:12;96344.22;;;1.40;64.71
11268;BME280;49397;47.474;9.416;2023-01-29T09:55:13;96344.28;;;1.22;66.46
11268;BME280;49397;47.474;9.416;2023-01-29T09:58:10;96348.06;;;1.56;66.33
11268;BME280;49397;47.474;9.416;2023-01-29T10:00:53;96351.88;;;1.83;65.25
11268;BME280;49397;47.474;9.416;2023-01-29T10:06:39;96345.59;;;2.40;64.52
11268;BME280;49397;47.474;9.416;2023-01-29T10:09:23;96342.69;;;2.98;63.61
11268;BME280;49397;47.474;9.416;2023-01-29T10:12:04;96346.16;;;3.27;62.32
11268;BME280;49397;47.474;9.416;2023-01-29T10:25:20;96359.06;;;3.30;60.75
11268;BME280;49397;47.474;9.416;2023-01-29T10:27:49;96355.50;;;2.96;61.04
11268;BME280;49397;47.474;9.416;2023-01-29T10:30:37;96358.72;;;2.53;61.90
11268;BME280;49397;47.474;9.416;2023-01-29T10:33:05;96345.44;;;2.19;63.97
11268;BME280;49397;47.474;9.416;2023-01-29T10:35:43;96362.78;;;2.16;63.74
11268;BME280;49397;47.474;9.416;2023-01-29T11:02:45;96339.25;;;2.18;66.18
11268;BME280;49397;47.474;9.416;2023-01-29T11:06:03;96347.19;;;2.13;67.50
11268;BME280;49397;47.474;9.416;2023-01-29T11:08:13;96343.13;;;2.11;66.89
11268;BME280;49397;47.474;9.416;2023-01-29T11:11:32;96342.53;;;2.09;66.44
11268;BME280;49397;47.474;9.416;2023-01-29T11:13:53;96331.94;;;2.14;67.04
11268;BME280;49397;47.474;9.416;2023-01-29T11:16:22;96334.47;;;2.20;68.19
11268;BME280;49397;47.474;9.416;2023-01-29T11:18:56;96325.38;;;2.33;67.00
11268;BME280;49397;47.474;9.416;2023-01-29T11:21:23;96328.75;;;2.28;67.51
11268;BME280;49397;47.474;9.416;2023-01-29T11:23:50;96316.69;;;2.14;66.98
11268;BME280;49397;47.474;9.416;2023-01-29T11:26:28;96322.75;;;2.10;66.66
11268;BME280;49397;47.474;9.416;2023-01-29T11:28:54;96302.31;;;2.04;68.24
11268;BME280;49397;47.474;9.416;2023-01-29T11:31:22;96316.81;;;2.19;67.96
11268;BME280;49397;47.474;9.416;2023-01-29T11:33:52;96317.66;;;2.08;68.74
11268;BME280;49397;47.474;9.416;2023-01-29T11:36:27;96313.47;;;2.01;68.57
11268;BME280;49397;47.474;9.416;2023-01-29T11:41:42;96305.09;;;1.97;66.88
11268;BME280;49397;47.474;9.416;2023-01-29T11:44:40;96312.66;;;1.89;66.59
11268;BME280;49397;47.474;9.416;2023-01-29T11:49:49;96315.00;;;1.85;65.73
11268;BME280;49397;47.474;9.416;2023-01-29T11:52:21;96317.00;;;1.90;66.29
11268;BME280;49397;47.474;9.416;2023-01-29T11:55:57;96303.47;;;1.96;66.09
11268;BME280;49397;47.474;9.416;2023-01-29T11:58:00;96311.72;;;1.95;66.29
11268;BME280;49397;47.474;9.416;2023-01-29T12:00:29;96302.09;;;1.94;67.41
11268;BME280;49397;47.474;9.416;2023-01-29T12:02:56;96294.75;;;2.01;67.29
11268;BME280;49397;47.474;9.416;2023-01-29T12:05:25;96294.50;;;2.02;65.92
11268;BME280;49397;47.474;9.416;2023-01-29T12:08:01;96274.75;;;1.92;65.20
11268;BME280;49397;47.474;9.416;2023-01-29T12:10:38;96287.34;;;1.56;65.79
11268;BME280;49397;47.474;9.416;2023-01-29T12:13:17;96281.91;;;1.40;66.65
11268;BME280;49397;47.474;9.416;2023-01-29T12:15:47;96281.53;;;1.36;66.47
11268;BME280;49397;47.474;9.416;2023-01-29T12:18:29;96280.72;;;1.47;65.98
11268;BME280;49397;47.474;9.416;2023-01-29T12:21:09;96267.25;;;1.42;66.63
11268;BME280;49397;47.474;9.416;2023-01-29T12:23:51;96274.91;;;1.50;66.68
11268;BME280;49397;47.474;9.416;2023-01-29T12:27:04;96256.91;;;1.58;66.62
11268;BME280;49397;47.474;9.416;2023-01-29T12:35:11;96270.84;;;1.48;65.65
11268;BME280;49397;47.474;9.416;2023-01-29T12:38:18;96261.72;;;1.84;65.45
11268;BME280;49397;47.474;9.416;2023-01-29T12:40:54;96264.91;;;2.09;64.94
11268;BME280;49397;47.474;9.416;2023-01-29T12:43:34;96263.13;;;1.86;64.03
11268;BME280;49397;47.474;9.416;2023-01-29T12:46:05;96262.41;;;2.02;65.47
11268;BME280;49397;47.474;9.416;2023-01-29T12:48:38;96256.84;;;2.20;64.70
11268;BME280;49397;47.474;9.416;2023-01-29T12:51:12;96266.09;;;2.01;64.62
11268;BME280;49397;47.474;9.416;2023-01-29T12:54:02;96269.97;;;1.82;65.11
11268;BME280;49397;47.474;9.416;2023-01-29T12:56:35;96272.09;;;1.80;65.41
11268;BME280;49397;47.474;9.416;2023-01-29T12:59:15;96267.38;;;2.10;63.18
11268;BME280;49397;47.474;9.416;2023-01-29T13:01:49;96262.22;;;2.20;63.16
11268;BME280;49397;47.474;9.416;2023-01-29T13:04:36;96257.03;;;2.58;62.20
11268;BME280;49397;47.474;9.416;2023-01-29T13:09:36;96250.91;;;2.91;60.24
11268;BME280;49397;47.474;9.416;2023-01-29T13:12:13;96254.25;;;2.53;60.25
11268;BME280;49397;47.474;9.416;2023-01-29T13:14:58;96243.91;;;2.29;59.85
11268;BME280;49397;47.474;9.416;2023-01-29T13:17:35;96242.94;;;2.35;62.13
11268;BME280;49397;47.474;9.416;2023-01-29T13:20:29;96231.81;;;2.71;61.40
11268;BME280;49397;47.474;9.416;2023-01-29T13:23:04;96235.66;;;2.75;60.12
11268;BME280;49397;47.474;9.416;2023-01-29T13:25:30;96242.69;;;2.64;59.89
11268;BME280;49397;47.474;9.416;2023-01-29T13:27:55;96238.38;;;2.80;60.28
11268;BME280;49397;47.474;9.416;2023-01-29T13:30:30;96233.78;;;2.92;60.25
11268;BME280;49397;47.474;9.416;2023-01-29T13:32:58;96231.09;;;2.75;59.71
11268;BME280;49397;47.474;9.416;2023-01-29T13:35:40;96224.09;;;2.74;60.92
11268;BME280;49397;47.474;9.416;2023-01-29T13:38:22;96234.00;;;2.57;60.70
11268;BME280;49397;47.474;9.416;2023-01-29T13:40:49;96229.97;;;2.15;61.23
11268;BME280;49397;47.474;9.416;2023-01-29T13:43:20;96234.63;;;2.20;61.16
11268;BME280;49397;47.474;9.416;2023-01-29T13:45:47;96215.31;;;1.90;61.96
11268;BME280;49397;47.474;9.416;2023-01-29T13:48:30;96231.03;;;1.86;63.01
11268;BME280;49397;47.474;9.416;2023-01-29T13:51:00;96222.94;;;1.98;62.54
11268;BME280;49397;47.474;9.416;2023-01-29T13:53:31;96217.53;;;1.93;61.79
11268;BME280;49397;47.474;9.416;2023-01-29T13:56:27;96213.84;;;2.10;62.03
11268;BME280;49397;47.474;9.416;2023-01-29T13:58:55;96212.13;;;2.32;61.24
11268;BME280;49397;47.474;9.416;2023-01-29T14:04:22;96218.28;;;2.33;60.96
11268;BME280;49397;47.474;9.416;2023-01-29T14:06:54;96219.09;;;2.50;60.95
11268;BME280;49397;47.474;9.416;2023-01-29T14:12:01;96223.28;;;2.29;61.22
11268;BME280;49397;47.474;9.416;2023-01-29T14:17:13;96201.22;;;2.22;61.56
11268;BME280;49397;47.474;9.416;2023-01-29T14:19:46;96200.59;;;2.48;60.80
11268;BME280;49397;47.474;9.416;2023-01-29T14:22:24;96212.88;;;2.61;61.49
11268;BME280;49397;47.474;9.416;2023-01-29T14:25:01;96207.31;;;2.34;60.92
11268;BME280;49397;47.474;9.416;2023-01-29T14:27:28;96195.78;;;2.17;61.30
11268;BME280;49397;47.474;9.416;2023-01-29T14:29:59;96192.44;;;2.10;61.35
11268;BME280;49397;47.474;9.416;2023-01-29T14:32:26;96193.19;;;1.94;61.65
11268;BME280;49397;47.474;9.416;2023-01-29T14:35:02;96196.00;;;1.88;62.13
11268;BME280;49397;47.474;9.416;2023-01-29T14:37:37;96187.44;;;1.74;63.32
11268;BME280;49397;47.474;9.416;2023-01-29T14:45:27;96179.38;;;1.34;64.70
11268;BME280;49397;47.474;9.416;2023-01-29T14:47:55;96183.94;;;1.22;65.47
11268;BME280;49397;47.474;9.416;2023-01-29T14:52:57;96188.81;;;1.25;65.62
11268;BME280;49397;47.474;9.416;2023-01-29T14:55:36;96185.22;;;1.20;65.80
11268;BME280;49397;47.474;9.416;2023-01-29T14:58:03;96192.44;;;1.08;66.23
11268;BME280;49397;47.474;9.416;2023-01-29T15:00:33;96178.63;;;0.99;66.65
11268;BME280;49397;47.474;9.416;2023-01-29T15:03:04;96186.16;;;0.91;66.81
11268;BME280;49397;47.474;9.416;2023-01-29T15:05:36;96183.50;;;0.91;67.28
11268;BME280;49397;47.474;9.416;2023-01-29T15:08:20;96184.44;;;0.96;67.18
11268;BME280;49397;47.474;9.416;2023-01-29T15:10:56;96172.56;;;0.81;67.32
11268;BME280;49397;47.474;9.416;2023-01-29T15:13:54;96164.56;;;0.69;67.59